Time;durP1;ratioP1;P1;durP2;ratioP2;P2;SDS_P1;SDS_P2;PMS_P1;PMS_P2;Temp;Humidity;BMP_temperature;BMP_pressure;BME280_temperature;BME280_humidity;BME280_pressure;Samples;Min_cycle;Max_cycle;Signal;HPM_P1;HPM_P2
2021/12/11 00:01:18;;;;;;;1.25;0.50;;;;;;;;;;4993965;28;20329;-58
2021/12/11 00:03:45;;;;;;;2.25;0.60;;;;;;;;;;5011052;28;20114;-55
2021/12/11 00:06:16;;;;;;;2.80;0.60;;;;;;;;;;5013552;28;22228;-57
2021/12/11 00:08:43;;;;;;;0.95;0.40;;;;;;;;;;5013262;28;20044;-57
2021/12/11 00:11:13;;;;;;;5.32;0.40;;;;;;;;;;5015250;28;20046;-57
2021/12/11 00:13:40;;;;;;;0.93;0.50;;;;;;;;;;5012213;28;20045;-58
2021/12/11 00:16:08;;;;;;;0.57;0.30;;;;;;;;;;5014456;28;20048;-56
2021/12/11 00:18:34;;;;;;;1.10;0.52;;;;;;;;;;5011787;28;20104;-58
2021/12/11 00:21:11;;;;;;;1.35;0.50;;;;;;;;;;5014030;28;20081;-59
2021/12/11 00:23:43;;;;;;;1.40;0.50;;;;;;;;;;5001427;28;20035;-56
2021/12/11 00:26:10;;;;;;;1.05;0.40;;;;;;;;;;4992198;28;20950;-58
2021/12/11 00:28:46;;;;;;;6.18;0.50;;;;;;;;;;4986762;28;20796;-57
2021/12/11 00:31:13;;;;;;;2.08;0.60;;;;;;;;;;4991963;28;20038;-58
2021/12/11 00:33:39;;;;;;;0.57;0.40;;;;;;;;;;4991170;28;20038;-58
2021/12/11 00:36:09;;;;;;;1.67;0.50;;;;;;;;;;4989091;28;20124;-58
2021/12/11 00:38:35;;;;;;;0.57;0.30;;;;;;;;;;4989994;28;20050;-58
2021/12/11 00:41:03;;;;;;;1.20;0.57;;;;;;;;;;4990742;28;20902;-57
2021/12/11 00:43:33;;;;;;;1.52;0.60;;;;;;;;;;4991934;28;20054;-57
2021/12/11 00:46:00;;;;;;;1.48;0.50;;;;;;;;;;4990475;28;20045;-55
2021/12/11 00:48:26;;;;;;;3.25;0.50;;;;;;;;;;4988458;28;20073;-57
2021/12/11 00:50:58;;;;;;;1.20;0.50;;;;;;;;;;4990274;28;20097;-57
2021/12/11 00:53:26;;;;;;;1.90;0.40;;;;;;;;;;4990024;28;20045;-57
2021/12/11 00:55:54;;;;;;;1.20;0.45;;;;;;;;;;4990815;28;20038;-57
2021/12/11 00:58:22;;;;;;;1.98;0.60;;;;;;;;;;4989690;28;20776;-58
2021/12/11 01:00:51;;;;;;;3.28;0.70;;;;;;;;;;4990171;28;20053;-59
2021/12/11 01:03:19;;;;;;;1.73;0.60;;;;;;;;;;4990271;28;20037;-58
2021/12/11 01:05:47;;;;;;;1.27;0.45;;;;;;;;;;5005869;28;20046;-58
2021/12/11 01:08:15;;;;;;;1.92;0.70;;;;;;;;;;4989583;28;20128;-57
2021/12/11 01:10:41;;;;;;;0.65;0.35;;;;;;;;;;4989706;28;20085;-58
2021/12/11 01:13:07;;;;;;;5.93;0.70;;;;;;;;;;4989256;28;20124;-56
2021/12/11 01:15:36;;;;;;;1.23;0.40;;;;;;;;;;4989430;28;20053;-59
2021/12/11 01:20:53;;;;;;;1.23;0.40;;;;;;;;;;5008987;28;20532;-57
2021/12/11 01:23:55;;;;;;;1.05;0.60;;;;;;;;;;5007789;28;20492;-54
2021/12/11 01:26:21;;;;;;;1.23;0.43;;;;;;;;;;5009882;28;20070;-57
2021/12/11 01:28:48;;;;;;;1.58;0.50;;;;;;;;;;5008916;28;20516;-57
2021/12/11 01:31:15;;;;;;;3.58;0.60;;;;;;;;;;4999358;28;20470;-57
2021/12/11 01:33:42;;;;;;;2.28;0.70;;;;;;;;;;5007792;28;20049;-56
2021/12/11 01:36:08;;;;;;;1.98;0.52;;;;;;;;;;5007164;28;20498;-59
2021/12/11 01:38:34;;;;;;;3.60;0.60;;;;;;;;;;5007638;28;20048;-57
2021/12/11 01:41:02;;;;;;;1.20;0.47;;;;;;;;;;5010685;28;20037;-57
2021/12/11 01:43:30;;;;;;;0.77;0.32;;;;;;;;;;5006750;28;20061;-57
2021/12/11 01:45:59;;;;;;;1.65;0.52;;;;;;;;;;5009601;28;20497;-59
2021/12/11 01:48:28;;;;;;;1.30;0.57;;;;;;;;;;5007032;28;20076;-57
2021/12/11 01:51:01;;;;;;;0.40;0.30;;;;;;;;;;5008611;28;20041;-57
2021/12/11 01:53:30;;;;;;;1.33;0.47;;;;;;;;;;5006727;28;20030;-57
2021/12/11 01:55:58;;;;;;;1.05;0.40;;;;;;;;;;5009720;28;20107;-57
2021/12/11 01:58:36;;;;;;;0.35;0.30;;;;;;;;;;5001969;28;20038;-55
2021/12/11 02:01:09;;;;;;;1.85;0.50;;;;;;;;;;4989466;28;20249;-57
2021/12/11 02:03:36;;;;;;;0.85;0.47;;;;;;;;;;4989464;28;20049;-59
2021/12/11 02:06:02;;;;;;;0.57;0.40;;;;;;;;;;4988788;28;20049;-59
2021/12/11 02:08:32;;;;;;;0.52;0.32;;;;;;;;;;4987845;28;20122;-55
2021/12/11 02:11:03;;;;;;;0.73;0.40;;;;;;;;;;4989478;28;20045;-55
2021/12/11 02:13:43;;;;;;;0.73;0.40;;;;;;;;;;4986889;28;20038;-57
2021/12/11 02:16:25;;;;;;;1.33;0.50;;;;;;;;;;4989034;28;20100;-54
2021/12/11 02:18:54;;;;;;;0.70;0.40;;;;;;;;;;4988174;28;20522;-58
2021/12/11 02:21:22;;;;;;;1.15;0.40;;;;;;;;;;4987467;28;20407;-55
2021/12/11 02:23:57;;;;;;;0.90;0.47;;;;;;;;;;4988969;28;20072;-56
2021/12/11 02:26:24;;;;;;;3.72;0.52;;;;;;;;;;4988057;28;20121;-56
2021/12/11 02:29:03;;;;;;;1.02;0.47;;;;;;;;;;4987856;28;20062;-55
2021/12/11 02:31:32;;;;;;;2.03;0.43;;;;;;;;;;4987511;28;20649;-58
2021/12/11 02:34:07;;;;;;;2.20;0.60;;;;;;;;;;4987497;28;20137;-58
2021/12/11 02:36:37;;;;;;;1.48;0.50;;;;;;;;;;4987892;28;20057;-58
2021/12/11 02:39:07;;;;;;;1.38;0.50;;;;;;;;;;4986692;28;20534;-57
2021/12/11 02:41:35;;;;;;;1.20;0.40;;;;;;;;;;4987102;28;20093;-58
2021/12/11 02:44:10;;;;;;;1.58;0.50;;;;;;;;;;4987295;28;20042;-58
2021/12/11 02:46:51;;;;;;;8.68;0.65;;;;;;;;;;4988328;28;20205;-58
2021/12/11 02:49:37;;;;;;;4.78;0.60;;;;;;;;;;4987731;28;20042;-57
2021/12/11 02:52:09;;;;;;;2.28;0.82;;;;;;;;;;4991583;28;20167;-58
2021/12/11 02:54:43;;;;;;;3.35;0.50;;;;;;;;;;4986947;28;20038;-57
2021/12/11 02:57:13;;;;;;;3.63;0.50;;;;;;;;;;4989092;28;20039;-57
2021/12/11 02:59:43;;;;;;;0.60;0.38;;;;;;;;;;4985574;28;20088;-56
2021/12/11 03:02:21;;;;;;;1.02;0.45;;;;;;;;;;4988164;28;20133;-57
2021/12/11 03:04:54;;;;;;;0.90;0.40;;;;;;;;;;4986502;28;20746;-57
2021/12/11 03:07:37;;;;;;;6.53;0.60;;;;;;;;;;4987378;28;20038;-58
2021/12/11 03:10:05;;;;;;;0.43;0.30;;;;;;;;;;4988515;28;20287;-58
2021/12/11 03:12:31;;;;;;;2.03;0.60;;;;;;;;;;4986240;28;20595;-58
2021/12/11 03:14:57;;;;;;;4.72;0.70;;;;;;;;;;4987760;28;20043;-57
2021/12/11 03:17:23;;;;;;;1.15;0.50;;;;;;;;;;4987793;28;20512;-55
2021/12/11 03:19:51;;;;;;;2.80;0.63;;;;;;;;;;4986394;28;20642;-59
2021/12/11 03:22:19;;;;;;;1.58;0.50;;;;;;;;;;4989149;28;20037;-58
2021/12/11 03:24:46;;;;;;;2.10;0.60;;;;;;;;;;4986866;28;20050;-56
2021/12/11 03:27:12;;;;;;;2.50;0.80;;;;;;;;;;4989652;28;20184;-57
2021/12/11 03:29:38;;;;;;;1.42;0.50;;;;;;;;;;4987593;28;20162;-57
2021/12/11 03:32:06;;;;;;;1.80;0.63;;;;;;;;;;4988228;28;20494;-57
2021/12/11 03:34:32;;;;;;;1.92;0.68;;;;;;;;;;4987700;28;20066;-57
2021/12/11 03:36:58;;;;;;;1.48;0.60;;;;;;;;;;4988993;28;20041;-57
2021/12/11 03:39:26;;;;;;;2.97;0.65;;;;;;;;;;4986233;28;20049;-58
2021/12/11 03:41:53;;;;;;;4.10;1.10;;;;;;;;;;4985770;28;20144;-56
2021/12/11 03:44:20;;;;;;;1.70;0.60;;;;;;;;;;4987037;28;20056;-56
2021/12/11 03:46:47;;;;;;;3.05;0.93;;;;;;;;;;4988831;28;20046;-58
2021/12/11 03:49:15;;;;;;;2.92;0.88;;;;;;;;;;4989451;28;20049;-59
2021/12/11 03:51:43;;;;;;;4.45;1.00;;;;;;;;;;4988692;28;20165;-58
2021/12/11 03:54:10;;;;;;;1.58;0.57;;;;;;;;;;4987691;28;20066;-58
2021/12/11 03:56:37;;;;;;;2.80;0.55;;;;;;;;;;4986507;28;20094;-56
2021/12/11 03:59:09;;;;;;;2.33;0.70;;;;;;;;;;4987251;28;20141;-55
2021/12/11 04:01:37;;;;;;;3.53;0.60;;;;;;;;;;4988090;28;20051;-57
2021/12/11 04:04:11;;;;;;;2.60;0.77;;;;;;;;;;4988167;28;20526;-60
2021/12/11 04:06:37;;;;;;;7.10;0.80;;;;;;;;;;4985894;28;20042;-58
2021/12/11 04:09:05;;;;;;;4.13;0.82;;;;;;;;;;4986798;28;20050;-56
2021/12/11 04:11:32;;;;;;;3.03;0.68;;;;;;;;;;4971088;28;20042;-58
2021/12/11 04:14:02;;;;;;;2.22;0.73;;;;;;;;;;4987974;28;20042;-57
2021/12/11 04:16:28;;;;;;;1.52;0.60;;;;;;;;;;4988726;28;20046;-58
2021/12/11 04:18:53;;;;;;;7.25;1.00;;;;;;;;;;4991175;28;20057;-57
2021/12/11 04:21:19;;;;;;;2.88;0.70;;;;;;;;;;4992287;28;20034;-58
2021/12/11 04:23:46;;;;;;;9.07;1.30;;;;;;;;;;4990643;28;20062;-57
2021/12/11 04:26:12;;;;;;;11.13;1.25;;;;;;;;;;4991146;28;20045;-57
2021/12/11 04:28:39;;;;;;;7.43;1.40;;;;;;;;;;4990218;28;20042;-57
2021/12/11 04:31:07;;;;;;;18.40;2.08;;;;;;;;;;4992749;28;20474;-56
2021/12/11 04:33:37;;;;;;;19.17;2.20;;;;;;;;;;4989700;28;20050;-58
2021/12/11 04:36:04;;;;;;;6.07;1.77;;;;;;;;;;4992883;28;20557;-58
2021/12/11 04:38:30;;;;;;;5.03;1.48;;;;;;;;;;4991421;28;20049;-57
2021/12/11 04:40:57;;;;;;;15.52;2.17;;;;;;;;;;4991727;28;20058;-57
2021/12/11 04:43:25;;;;;;;4.85;1.92;;;;;;;;;;4991110;28;20788;-58
2021/12/11 04:45:54;;;;;;;5.38;1.60;;;;;;;;;;4990667;28;20042;-57
2021/12/11 04:48:35;;;;;;;6.47;2.30;;;;;;;;;;4990586;28;20080;-58
2021/12/11 05:09:56;;;;;;;21.30;1.83;;;;;;;;;;5000535;28;20516;-57
2021/12/11 05:14:50;;;;;;;3.22;1.27;;;;;;;;;;5010927;28;20041;-58
2021/12/11 05:17:17;;;;;;;10.20;1.25;;;;;;;;;;5001798;28;20042;-57
2021/12/11 05:19:43;;;;;;;11.93;1.63;;;;;;;;;;5009992;28;20057;-60
2021/12/11 05:22:10;;;;;;;4.72;1.27;;;;;;;;;;5009544;28;20510;-58
2021/12/11 05:24:37;;;;;;;9.52;1.38;;;;;;;;;;5009326;28;20819;-58
2021/12/11 05:27:03;;;;;;;3.67;0.80;;;;;;;;;;5009398;28;20528;-58
2021/12/11 05:29:29;;;;;;;8.38;1.40;;;;;;;;;;5007488;28;20045;-58
2021/12/11 05:31:55;;;;;;;4.78;1.23;;;;;;;;;;5010844;28;20036;-56
2021/12/11 05:34:21;;;;;;;3.78;1.15;;;;;;;;;;5007607;28;20098;-56
2021/12/11 05:36:47;;;;;;;4.55;1.23;;;;;;;;;;5009295;28;20072;-54
2021/12/11 05:39:15;;;;;;;14.07;1.48;;;;;;;;;;5008209;28;20243;-58
2021/12/11 05:41:43;;;;;;;4.25;1.08;;;;;;;;;;5010349;28;20419;-58
2021/12/11 05:44:10;;;;;;;2.65;0.90;;;;;;;;;;5009523;28;20038;-58
2021/12/11 05:46:36;;;;;;;2.13;0.70;;;;;;;;;;5008885;28;20100;-58
2021/12/11 05:49:04;;;;;;;2.00;0.60;;;;;;;;;;5009769;28;20125;-59
2021/12/11 05:51:37;;;;;;;2.40;0.63;;;;;;;;;;5008828;28;20124;-58
2021/12/11 05:54:03;;;;;;;;;;;;;;;;;;5009393;28;20486;-59
2021/12/11 05:56:34;;;;;;;6.88;0.65;;;;;;;;;;5008086;28;19963;-57
2021/12/11 05:59:00;;;;;;;2.53;0.77;;;;;;;;;;5007003;28;20403;-59
2021/12/11 06:01:31;;;;;;;2.40;0.80;;;;;;;;;;5005635;28;20030;-58
2021/12/11 06:03:59;;;;;;;1.65;0.60;;;;;;;;;;5009064;28;20046;-57
2021/12/11 06:06:25;;;;;;;1.95;0.50;;;;;;;;;;5008842;28;20034;-57
2021/12/11 06:08:50;;;;;;;8.93;1.00;;;;;;;;;;5008074;28;20061;-57
2021/12/11 06:11:18;;;;;;;3.17;0.50;;;;;;;;;;5010491;28;20038;-57
2021/12/11 06:13:44;;;;;;;1.52;0.50;;;;;;;;;;5008909;28;20508;-58
2021/12/11 06:16:10;;;;;;;0.82;0.40;;;;;;;;;;5010156;28;20052;-57
2021/12/11 06:18:35;;;;;;;3.65;0.50;;;;;;;;;;5007791;28;20037;-58
2021/12/11 06:21:02;;;;;;;2.33;0.50;;;;;;;;;;5009715;28;20567;-58
2021/12/11 06:23:28;;;;;;;0.93;0.40;;;;;;;;;;5010692;28;20047;-58
2021/12/11 06:25:55;;;;;;;1.27;0.60;;;;;;;;;;5009712;28;20040;-57
2021/12/11 06:28:22;;;;;;;1.75;0.60;;;;;;;;;;5007707;28;20486;-57
2021/12/11 06:30:48;;;;;;;0.90;0.40;;;;;;;;;;4987670;28;20403;-58
2021/12/11 06:33:13;;;;;;;1.17;0.50;;;;;;;;;;4992763;28;20061;-57
2021/12/11 06:35:42;;;;;;;1.88;0.50;;;;;;;;;;4990584;28;20986;-57
2021/12/11 06:38:09;;;;;;;0.47;0.40;;;;;;;;;;4990674;28;20050;-54
2021/12/11 06:40:35;;;;;;;1.60;0.50;;;;;;;;;;4989183;28;20050;-57
2021/12/11 06:43:01;;;;;;;1.25;0.50;;;;;;;;;;4991958;28;20507;-56
2021/12/11 06:45:27;;;;;;;2.30;0.50;;;;;;;;;;4988213;28;20506;-55
2021/12/11 06:47:53;;;;;;;1.40;0.50;;;;;;;;;;4991152;28;20111;-58
2021/12/11 06:50:19;;;;;;;5.38;0.50;;;;;;;;;;4990388;28;20540;-56
2021/12/11 06:52:46;;;;;;;8.23;0.70;;;;;;;;;;4990006;28;20046;-57
2021/12/11 06:55:13;;;;;;;3.42;0.70;;;;;;;;;;4989117;28;20046;-58
2021/12/11 06:57:38;;;;;;;2.53;0.70;;;;;;;;;;4987701;28;20070;-56
2021/12/11 07:00:05;;;;;;;3.35;0.90;;;;;;;;;;4989575;28;20734;-56
2021/12/11 07:02:30;;;;;;;4.93;0.70;;;;;;;;;;4987535;28;20042;-55
2021/12/11 07:04:56;;;;;;;1.85;0.60;;;;;;;;;;4989782;28;20172;-58
2021/12/11 07:07:25;;;;;;;1.35;0.50;;;;;;;;;;4987039;28;20057;-57
2021/12/11 07:09:52;;;;;;;2.17;0.70;;;;;;;;;;4987852;28;20046;-58
2021/12/11 07:12:19;;;;;;;6.65;0.88;;;;;;;;;;4988267;28;20698;-58
2021/12/11 07:14:46;;;;;;;2.47;0.80;;;;;;;;;;5003813;28;20041;-56
2021/12/11 07:17:12;;;;;;;7.68;1.20;;;;;;;;;;5011291;28;20107;-58
2021/12/11 07:19:38;;;;;;;4.25;0.95;;;;;;;;;;4998365;28;20513;-58
2021/12/11 07:22:04;;;;;;;6.10;0.95;;;;;;;;;;4992218;28;20045;-56
2021/12/11 07:24:32;;;;;;;3.00;1.00;;;;;;;;;;4990496;28;20554;-55
2021/12/11 07:27:00;;;;;;;6.22;1.30;;;;;;;;;;4988609;28;20092;-57
2021/12/11 07:29:26;;;;;;;3.67;1.15;;;;;;;;;;4986634;28;20063;-56
2021/12/11 07:31:53;;;;;;;3.33;0.90;;;;;;;;;;4988411;28;20042;-58
2021/12/11 07:34:19;;;;;;;2.75;0.88;;;;;;;;;;4985456;28;20050;-58
2021/12/11 07:36:46;;;;;;;2.72;0.80;;;;;;;;;;4986442;28;20142;-53
2021/12/11 07:39:13;;;;;;;3.78;0.95;;;;;;;;;;4987024;28;20069;-58
2021/12/11 07:41:39;;;;;;;4.43;1.17;;;;;;;;;;4983677;28;20038;-54
2021/12/11 07:44:05;;;;;;;4.68;1.45;;;;;;;;;;4987724;28;20514;-57
2021/12/11 07:46:31;;;;;;;7.55;1.10;;;;;;;;;;4995995;28;20128;-56
2021/12/11 07:48:58;;;;;;;4.68;1.23;;;;;;;;;;5002313;28;20042;-55
2021/12/11 07:51:26;;;;;;;3.83;0.88;;;;;;;;;;4989159;28;20038;-55
2021/12/11 07:53:52;;;;;;;3.28;1.00;;;;;;;;;;4993163;28;20082;-56
2021/12/11 07:56:19;;;;;;;2.85;0.90;;;;;;;;;;4991143;28;20089;-56
2021/12/11 07:58:48;;;;;;;2.92;0.93;;;;;;;;;;4990069;28;20084;-57
2021/12/11 08:01:15;;;;;;;3.35;0.95;;;;;;;;;;4992389;28;20180;-57
2021/12/11 08:03:41;;;;;;;3.03;1.05;;;;;;;;;;4990163;28;20133;-57
2021/12/11 08:06:07;;;;;;;2.70;0.80;;;;;;;;;;4990104;28;20470;-57
2021/12/11 08:08:33;;;;;;;4.45;1.25;;;;;;;;;;4989495;28;20042;-58
2021/12/11 08:11:01;;;;;;;3.20;0.98;;;;;;;;;;4990548;28;20050;-57
2021/12/11 08:13:27;;;;;;;9.15;1.30;;;;;;;;;;4990447;28;20040;-58
2021/12/11 08:15:55;;;;;;;4.70;1.15;;;;;;;;;;4990285;28;20037;-57
2021/12/11 08:18:21;;;;;;;5.28;1.13;;;;;;;;;;4988785;28;20146;-56
2021/12/11 08:20:47;;;;;;;4.03;1.17;;;;;;;;;;4990563;28;20104;-58
2021/12/11 08:23:14;;;;;;;7.32;1.40;;;;;;;;;;4989787;28;20096;-58
2021/12/11 08:25:41;;;;;;;4.82;1.50;;;;;;;;;;4986712;28;20439;-57
2021/12/11 08:28:08;;;;;;;3.78;0.95;;;;;;;;;;4990545;28;20050;-57
2021/12/11 08:30:36;;;;;;;6.10;1.70;;;;;;;;;;4989401;28;20519;-57
2021/12/11 08:33:02;;;;;;;4.97;1.60;;;;;;;;;;4990692;28;20053;-57
2021/12/11 08:35:28;;;;;;;4.15;1.30;;;;;;;;;;4988329;28;20194;-57
2021/12/11 08:37:55;;;;;;;8.93;1.67;;;;;;;;;;4990265;28;20412;-56
2021/12/11 08:40:23;;;;;;;4.35;1.90;;;;;;;;;;4990521;28;20042;-58
2021/12/11 08:42:49;;;;;;;7.75;1.60;;;;;;;;;;4990756;28;20092;-57
2021/12/11 08:45:23;;;;;;;3.22;1.17;;;;;;;;;;4988819;28;20583;-58
2021/12/11 08:47:50;;;;;;;6.88;1.17;;;;;;;;;;4990470;28;20492;-56
2021/12/11 08:50:17;;;;;;;4.05;1.10;;;;;;;;;;4989146;28;20038;-58
2021/12/11 08:52:45;;;;;;;5.00;1.23;;;;;;;;;;4988852;28;20089;-55
2021/12/11 08:55:12;;;;;;;2.40;0.82;;;;;;;;;;4990420;28;20050;-58
2021/12/11 08:57:40;;;;;;;4.72;1.20;;;;;;;;;;4987925;28;22275;-58
2021/12/11 09:00:10;;;;;;;6.65;1.27;;;;;;;;;;4990807;28;20058;-57
2021/12/11 09:02:40;;;;;;;5.38;1.48;;;;;;;;;;4990609;28;20034;-57
2021/12/11 09:05:09;;;;;;;9.68;1.17;;;;;;;;;;4990083;28;20388;-57
2021/12/11 09:07:47;;;;;;;4.47;1.40;;;;;;;;;;4989542;28;20900;-55
2021/12/11 09:10:19;;;;;;;3.67;1.15;;;;;;;;;;4990099;28;20037;-57
2021/12/11 09:12:51;;;;;;;6.75;1.20;;;;;;;;;;4999007;28;20034;-57
2021/12/11 09:15:25;;;;;;;2.88;0.82;;;;;;;;;;5004639;28;20129;-57
2021/12/11 09:18:00;;;;;;;4.93;0.90;;;;;;;;;;4995620;28;20545;-57
2021/12/11 09:20:26;;;;;;;3.05;1.08;;;;;;;;;;4989053;28;20442;-56
2021/12/11 09:22:52;;;;;;;3.83;1.00;;;;;;;;;;4990345;28;20033;-57
2021/12/11 09:25:42;;;;;;;2.80;0.98;;;;;;;;;;4991168;28;20129;-58
2021/12/11 09:28:11;;;;;;;7.30;1.02;;;;;;;;;;5000201;28;20042;-57
2021/12/11 09:30:43;;;;;;;2.80;0.90;;;;;;;;;;5009525;28;21693;-57
2021/12/11 09:33:11;;;;;;;3.88;0.65;;;;;;;;;;4994475;28;20078;-58
2021/12/11 09:35:43;;;;;;;4.03;0.90;;;;;;;;;;4990398;28;20070;-58
2021/12/11 09:38:13;;;;;;;2.10;0.65;;;;;;;;;;4989366;28;20050;-58
2021/12/11 09:40:39;;;;;;;6.28;1.00;;;;;;;;;;4989206;28;20479;-56
2021/12/11 09:43:05;;;;;;;2.35;1.00;;;;;;;;;;4989094;28;20057;-56
2021/12/11 09:45:33;;;;;;;2.80;0.82;;;;;;;;;;4986241;28;20045;-58
2021/12/11 09:48:01;;;;;;;3.50;0.75;;;;;;;;;;4988862;28;20519;-57
2021/12/11 09:50:44;;;;;;;1.65;0.70;;;;;;;;;;4989453;28;20052;-58
2021/12/11 09:53:11;;;;;;;2.33;0.70;;;;;;;;;;4986526;28;20046;-56
2021/12/11 09:55:37;;;;;;;3.05;1.00;;;;;;;;;;4986524;28;20054;-55
2021/12/11 09:58:06;;;;;;;2.20;0.70;;;;;;;;;;4989733;28;20559;-58
2021/12/11 10:00:32;;;;;;;5.30;0.90;;;;;;;;;;4989898;28;20545;-57
2021/12/11 10:03:00;;;;;;;3.30;0.70;;;;;;;;;;4992155;28;20034;-56
2021/12/11 10:05:35;;;;;;;2.38;0.80;;;;;;;;;;4990039;28;20121;-56
2021/12/11 10:08:29;;;;;;;2.30;0.80;;;;;;;;;;4991118;28;20034;-56
2021/12/11 10:11:01;;;;;;;6.85;1.02;;;;;;;;;;4992648;28;20074;-57
2021/12/11 10:13:28;;;;;;;3.10;0.70;;;;;;;;;;4990215;28;20038;-56
2021/12/11 10:15:54;;;;;;;5.78;1.00;;;;;;;;;;4990022;28;20076;-55
2021/12/11 10:18:21;;;;;;;4.53;1.00;;;;;;;;;;4989593;28;20049;-58
2021/12/11 10:20:50;;;;;;;3.45;0.93;;;;;;;;;;5006014;28;20086;-57
2021/12/11 10:23:19;;;;;;;2.50;0.73;;;;;;;;;;4991613;28;20046;-57
2021/12/11 10:25:47;;;;;;;4.13;0.63;;;;;;;;;;4999227;28;20046;-58
2021/12/11 10:28:17;;;;;;;1.98;0.65;;;;;;;;;;4988411;28;20041;-58
2021/12/11 10:30:47;;;;;;;2.05;0.82;;;;;;;;;;4988253;28;20077;-58
2021/12/11 10:33:15;;;;;;;2.42;0.85;;;;;;;;;;4988643;28;20076;-58
2021/12/11 10:35:43;;;;;;;7.13;1.15;;;;;;;;;;4987060;28;20077;-58
2021/12/11 10:38:09;;;;;;;2.35;0.70;;;;;;;;;;4988937;28;20042;-57
2021/12/11 10:40:42;;;;;;;1.70;0.60;;;;;;;;;;4988087;28;20062;-57
2021/12/11 10:43:10;;;;;;;1.77;0.60;;;;;;;;;;4988937;28;20129;-58
2021/12/11 10:45:36;;;;;;;1.65;0.55;;;;;;;;;;4986541;28;20391;-58
2021/12/11 10:48:05;;;;;;;2.50;0.73;;;;;;;;;;4988620;28;20049;-56
2021/12/11 10:50:36;;;;;;;2.63;0.60;;;;;;;;;;4986909;28;20058;-56
2021/12/11 10:53:05;;;;;;;3.22;0.70;;;;;;;;;;4989592;28;20054;-56
2021/12/11 10:55:32;;;;;;;1.95;0.50;;;;;;;;;;4988619;28;20037;-58
2021/12/11 10:58:01;;;;;;;2.35;0.60;;;;;;;;;;4988800;28;20432;-58
2021/12/11 11:00:31;;;;;;;1.48;0.47;;;;;;;;;;4988627;28;20072;-58
2021/12/11 11:02:57;;;;;;;1.48;0.40;;;;;;;;;;4989879;28;20116;-57
2021/12/11 11:05:24;;;;;;;0.60;0.32;;;;;;;;;;5004037;28;20033;-54
2021/12/11 11:07:50;;;;;;;1.00;0.43;;;;;;;;;;5008594;28;20490;-57
2021/12/11 11:10:23;;;;;;;0.82;0.40;;;;;;;;;;5008483;28;20133;-58
2021/12/11 11:12:50;;;;;;;0.75;0.40;;;;;;;;;;4987474;28;20038;-56
2021/12/11 11:15:18;;;;;;;4.25;0.35;;;;;;;;;;4988121;28;20540;-56
2021/12/11 11:17:44;;;;;;;0.40;0.30;;;;;;;;;;4998129;28;20498;-58
2021/12/11 11:20:14;;;;;;;0.73;0.40;;;;;;;;;;5008085;28;20054;-59
2021/12/11 11:22:41;;;;;;;1.05;0.40;;;;;;;;;;5007392;28;20042;-57
2021/12/11 11:25:13;;;;;;;0.65;0.35;;;;;;;;;;5005691;28;20511;-58
2021/12/11 11:27:40;;;;;;;0.30;0.30;;;;;;;;;;5006359;28;20045;-58
2021/12/11 11:30:08;;;;;;;0.30;0.30;;;;;;;;;;4991632;28;20105;-59
2021/12/11 11:32:34;;;;;;;1.42;0.40;;;;;;;;;;4988031;28;20060;-58
2021/12/11 11:35:06;;;;;;;1.00;0.45;;;;;;;;;;4999853;28;20831;-58
2021/12/11 11:37:35;;;;;;;0.30;0.30;;;;;;;;;;4986113;28;20077;-57
2021/12/11 11:40:03;;;;;;;0.57;0.35;;;;;;;;;;4986495;28;20057;-58
2021/12/11 11:42:29;;;;;;;0.30;0.30;;;;;;;;;;4986092;28;20038;-57
2021/12/11 11:44:55;;;;;;;1.05;0.40;;;;;;;;;;4987645;28;20041;-58
2021/12/11 11:47:22;;;;;;;0.32;0.28;;;;;;;;;;4985636;28;20054;-58
2021/12/11 11:49:48;;;;;;;0.40;0.38;;;;;;;;;;4989873;28;20038;-56
2021/12/11 11:52:16;;;;;;;1.20;0.57;;;;;;;;;;4988370;28;20129;-55
2021/12/11 11:54:44;;;;;;;1.17;0.40;;;;;;;;;;4990601;28;20066;-57
2021/12/11 11:57:30;;;;;;;0.98;0.30;;;;;;;;;;5007435;28;20729;-55
2021/12/11 11:59:57;;;;;;;0.88;0.40;;;;;;;;;;4992315;28;20054;-58
2021/12/11 12:02:24;;;;;;;1.05;0.40;;;;;;;;;;4987390;28;20130;-53
2021/12/11 12:04:52;;;;;;;1.08;0.30;;;;;;;;;;4994977;28;20061;-59
2021/12/11 12:07:25;;;;;;;0.38;0.30;;;;;;;;;;5005093;28;20047;-59
2021/12/11 12:09:51;;;;;;;0.80;0.30;;;;;;;;;;5002697;28;20149;-59
2021/12/11 12:12:17;;;;;;;1.83;0.50;;;;;;;;;;4988352;28;20027;-58
2021/12/11 12:14:44;;;;;;;0.35;0.30;;;;;;;;;;4985807;28;20061;-58
2021/12/11 12:17:11;;;;;;;0.38;0.22;;;;;;;;;;4987577;28;20161;-59
2021/12/11 12:19:38;;;;;;;1.20;0.40;;;;;;;;;;4985999;28;20811;-57
2021/12/11 12:22:05;;;;;;;0.85;0.30;;;;;;;;;;4987848;28;20038;-57
2021/12/11 12:24:33;;;;;;;3.15;0.43;;;;;;;;;;4986750;28;20034;-58
2021/12/11 12:27:00;;;;;;;0.55;0.30;;;;;;;;;;4985999;28;20126;-57
2021/12/11 12:29:27;;;;;;;3.20;0.43;;;;;;;;;;4986650;28;20869;-59
2021/12/11 12:32:03;;;;;;;1.00;0.40;;;;;;;;;;4986405;28;20046;-59
2021/12/11 12:34:29;;;;;;;1.63;0.40;;;;;;;;;;4984718;28;20061;-59
2021/12/11 12:36:56;;;;;;;2.38;0.45;;;;;;;;;;4986766;28;20050;-56
2021/12/11 12:39:24;;;;;;;1.30;0.40;;;;;;;;;;4989775;28;20137;-59
2021/12/11 12:42:08;;;;;;;0.95;0.38;;;;;;;;;;4989656;28;20053;-59
2021/12/11 12:44:34;;;;;;;0.88;0.40;;;;;;;;;;4987925;28;20105;-60
2021/12/11 12:46:59;;;;;;;1.27;0.43;;;;;;;;;;4990161;28;20117;-59
2021/12/11 12:49:28;;;;;;;1.17;0.43;;;;;;;;;;4989772;28;20061;-58
2021/12/11 12:51:56;;;;;;;0.88;0.40;;;;;;;;;;4988449;28;20053;-59
2021/12/11 12:54:22;;;;;;;1.23;0.40;;;;;;;;;;4988767;28;20084;-59
2021/12/11 12:56:57;;;;;;;2.15;0.55;;;;;;;;;;4988590;28;20125;-59
2021/12/11 12:59:31;;;;;;;1.15;0.50;;;;;;;;;;4989931;28;20041;-58
2021/12/11 13:02:08;;;;;;;1.45;0.50;;;;;;;;;;4988241;28;20101;-57
2021/12/11 13:04:36;;;;;;;1.85;0.60;;;;;;;;;;4986298;28;20121;-58
2021/12/11 13:07:04;;;;;;;0.52;0.30;;;;;;;;;;4988412;28;20497;-59
2021/12/11 13:09:51;;;;;;;1.77;0.50;;;;;;;;;;4989854;28;20064;-59
2021/12/11 13:12:28;;;;;;;1.42;0.45;;;;;;;;;;4989489;28;20510;-58
2021/12/11 13:14:55;;;;;;;0.63;0.30;;;;;;;;;;4999939;28;20030;-57
2021/12/11 13:17:26;;;;;;;0.60;0.30;;;;;;;;;;5007386;28;20038;-59
2021/12/11 13:19:53;;;;;;;1.70;0.63;;;;;;;;;;5008776;28;20053;-58
2021/12/11 13:22:27;;;;;;;4.13;0.75;;;;;;;;;;5008577;28;20052;-57
2021/12/11 13:24:55;;;;;;;1.48;0.50;;;;;;;;;;5007888;28;20068;-57
2021/12/11 13:27:24;;;;;;;1.38;0.50;;;;;;;;;;4998510;28;20117;-57
2021/12/11 13:29:52;;;;;;;0.75;0.30;;;;;;;;;;4987616;28;20456;-58
2021/12/11 13:32:20;;;;;;;0.73;0.30;;;;;;;;;;4988144;28;20065;-56
2021/12/11 13:34:48;;;;;;;0.30;0.30;;;;;;;;;;4986911;28;20107;-56
2021/12/11 13:37:16;;;;;;;0.70;0.30;;;;;;;;;;4987391;28;20033;-58
2021/12/11 13:39:43;;;;;;;2.28;0.30;;;;;;;;;;4987922;28;20408;-59
2021/12/11 13:42:10;;;;;;;0.38;0.30;;;;;;;;;;4989343;28;20046;-58
2021/12/11 13:44:38;;;;;;;0.35;0.20;;;;;;;;;;4989449;28;20073;-57
2021/12/11 13:47:07;;;;;;;0.45;0.30;;;;;;;;;;4989162;28;20097;-56
2021/12/11 13:49:32;;;;;;;7.10;0.40;;;;;;;;;;4987424;28;20089;-60
2021/12/11 13:51:59;;;;;;;1.02;0.43;;;;;;;;;;4990343;28;20069;-59
2021/12/11 13:54:25;;;;;;;2.88;0.32;;;;;;;;;;4987269;28;20077;-59
2021/12/11 13:56:54;;;;;;;0.35;0.30;;;;;;;;;;4987329;28;20112;-59
2021/12/11 13:59:21;;;;;;;0.30;0.30;;;;;;;;;;4988221;28;20054;-59
2021/12/11 14:01:49;;;;;;;0.40;0.30;;;;;;;;;;4988296;28;21059;-59
2021/12/11 14:04:20;;;;;;;0.35;0.30;;;;;;;;;;4988240;28;20050;-59
2021/12/11 14:06:52;;;;;;;0.57;0.30;;;;;;;;;;4986598;28;20103;-59
2021/12/11 14:09:21;;;;;;;0.20;0.20;;;;;;;;;;4988383;28;20052;-58
2021/12/11 14:11:48;;;;;;;0.68;0.40;;;;;;;;;;4988569;28;20089;-58
2021/12/11 14:14:15;;;;;;;0.70;0.30;;;;;;;;;;4990172;28;20092;-56
2021/12/11 14:16:42;;;;;;;0.90;0.30;;;;;;;;;;4988668;28;20763;-58
2021/12/11 14:19:08;;;;;;;0.68;0.32;;;;;;;;;;4987717;28;20042;-57
2021/12/11 14:21:34;;;;;;;0.93;0.40;;;;;;;;;;4988032;28;20101;-57
2021/12/11 14:24:00;;;;;;;1.00;0.30;;;;;;;;;;4988419;28;20045;-58
2021/12/11 14:26:26;;;;;;;1.17;0.40;;;;;;;;;;4986184;28;20038;-56
2021/12/11 14:28:55;;;;;;;4.13;0.85;;;;;;;;;;4988540;28;20061;-59
2021/12/11 14:31:22;;;;;;;0.35;0.30;;;;;;;;;;4987240;28;20034;-57
2021/12/11 14:33:49;;;;;;;1.17;0.40;;;;;;;;;;4986959;28;20041;-58
2021/12/11 14:36:17;;;;;;;1.05;0.40;;;;;;;;;;4985353;28;20438;-59
2021/12/11 14:38:45;;;;;;;0.82;0.40;;;;;;;;;;4988139;28;20088;-59
2021/12/11 14:41:11;;;;;;;0.93;0.50;;;;;;;;;;4987705;28;20078;-58
2021/12/11 14:43:37;;;;;;;0.90;0.45;;;;;;;;;;4987899;28;20124;-58
2021/12/11 14:46:04;;;;;;;0.95;0.40;;;;;;;;;;4987654;28;20552;-59
2021/12/11 14:48:30;;;;;;;1.98;0.40;;;;;;;;;;4987014;28;20394;-59
2021/12/11 14:51:02;;;;;;;1.10;0.40;;;;;;;;;;4987449;28;20104;-58
2021/12/11 14:53:32;;;;;;;1.15;0.40;;;;;;;;;;4987103;28;20038;-59
2021/12/11 14:55:59;;;;;;;0.77;0.38;;;;;;;;;;4987161;28;20176;-59
2021/12/11 14:58:25;;;;;;;0.43;0.30;;;;;;;;;;4987542;28;20038;-57
2021/12/11 15:00:53;;;;;;;1.10;0.40;;;;;;;;;;4987646;28;20530;-59
2021/12/11 15:03:19;;;;;;;0.57;0.40;;;;;;;;;;4986243;28;20643;-58
2021/12/11 15:05:47;;;;;;;1.90;0.40;;;;;;;;;;4986427;28;20104;-58
2021/12/11 15:08:14;;;;;;;10.30;0.50;;;;;;;;;;4987090;28;20038;-58
2021/12/11 15:10:41;;;;;;;0.32;0.30;;;;;;;;;;4987115;28;20910;-59
2021/12/11 15:13:07;;;;;;;0.80;0.40;;;;;;;;;;4987453;28;20045;-58
2021/12/11 15:15:33;;;;;;;0.98;0.40;;;;;;;;;;4985975;28;20121;-57